<?xml version='1.0' encoding='UTF-8'?>
<gpx xmlns="http://www.topografix.com/GPX/1/1" creator="www.balnam.be" version="1.1" xmlns:xsi="http://www.w3.org/2001/XMLSchema-instance" xsi:schemaLocation="http://www.topografix.com/GPX/1/1 http://www.topografix.com/GPX/1/1/gpx.xsd">
<trk>
<name>hbshri1</name>
<cmt>v</cmt>
<desc>Hornu Chemin n°i1 </desc>
<link href="https://chemins.be/hornu/chemin/i1"/><trkseg>
<trkpt lat="50.437914" lon="3.833016"><time>2026-05-03T00:05:36Z</time></trkpt>
<trkpt lat="50.438712" lon="3.832472"><time>2026-05-03T00:15:36Z</time></trkpt>
<trkpt lat="50.439475" lon="3.832266"><time>2026-05-03T00:25:36Z</time></trkpt>
<trkpt lat="50.440823" lon="3.832152"><time>2026-05-03T00:35:36Z</time></trkpt>
<trkpt lat="50.440986" lon="3.832516"><time>2026-05-03T00:45:36Z</time></trkpt>
</trkseg>
</trk>
<trk>
<name>hbshri10</name>
<cmt>v</cmt>
<desc>Hornu Chemin n°i10 Chemin Creuset</desc>
<link href="https://chemins.be/hornu/chemin/i10"/><trkseg>
<trkpt lat="50.427765" lon="3.817607"><time>2026-05-03T00:05:36Z</time></trkpt>
<trkpt lat="50.426699" lon="3.817680"><time>2026-05-03T00:15:36Z</time></trkpt>
<trkpt lat="50.426004" lon="3.817728"><time>2026-05-03T00:25:36Z</time></trkpt>
<trkpt lat="50.425206" lon="3.816749"><time>2026-05-03T00:35:36Z</time></trkpt>
<trkpt lat="50.423729" lon="3.816646"><time>2026-05-03T00:45:36Z</time></trkpt>
<trkpt lat="50.423128" lon="3.817110"><time>2026-05-03T00:55:36Z</time></trkpt>
<trkpt lat="50.421661" lon="3.816960"><time>2026-05-03T01:05:36Z</time></trkpt>
<trkpt lat="50.421351" lon="3.816942"><time>2026-05-03T01:15:36Z</time></trkpt>
<trkpt lat="50.421290" lon="3.817049"><time>2026-05-03T01:25:36Z</time></trkpt>
<trkpt lat="50.421122" lon="3.817023"><time>2026-05-03T01:35:36Z</time></trkpt>
</trkseg></trk>
<trk>
<name>hbshri10</name>
<cmt>d</cmt>
<desc>Hornu Chemin n°i10 Chemin Creuset</desc>
<link href="https://chemins.be/hornu/chemin/i10"/><trkseg>
<trkpt lat="50.421122" lon="3.817023"><time>2026-05-03T01:35:36Z</time></trkpt>
<trkpt lat="50.420942" lon="3.816707"><time>2026-05-03T01:45:36Z</time></trkpt>
<trkpt lat="50.420682" lon="3.816649"><time>2026-05-03T01:55:36Z</time></trkpt>
<trkpt lat="50.420268" lon="3.816544"><time>2026-05-03T02:05:36Z</time></trkpt>
<trkpt lat="50.419206" lon="3.816341"><time>2026-05-03T02:15:36Z</time></trkpt>
</trkseg></trk>
<trk>
<name>hbshri10</name>
<cmt>v</cmt>
<desc>Hornu Chemin n°i10 Chemin Creuset</desc>
<link href="https://chemins.be/hornu/chemin/i10"/><trkseg>
<trkpt lat="50.419206" lon="3.816341"><time>2026-05-03T02:15:36Z</time></trkpt>
<trkpt lat="50.417334" lon="3.816644"><time>2026-05-03T02:25:36Z</time></trkpt>
<trkpt lat="50.415739" lon="3.816272"><time>2026-05-03T02:35:36Z</time></trkpt>
</trkseg>
</trk>
<trk>
<name>hbshri11</name>
<cmt>d</cmt>
<desc>Hornu Chemin n°i11 </desc>
<link href="https://chemins.be/hornu/chemin/i11"/><trkseg>
<trkpt lat="50.413597" lon="3.821765"><time>2026-05-03T00:05:36Z</time></trkpt>
<trkpt lat="50.415672" lon="3.823334"><time>2026-05-03T00:15:36Z</time></trkpt>
</trkseg></trk>
<trk>
<name>hbshri11</name>
<cmt>v</cmt>
<desc>Hornu Chemin n°i11 </desc>
<link href="https://chemins.be/hornu/chemin/i11"/><trkseg>
<trkpt lat="50.415672" lon="3.823334"><time>2026-05-03T00:15:36Z</time></trkpt>
<trkpt lat="50.416359" lon="3.823854"><time>2026-05-03T00:25:36Z</time></trkpt>
<trkpt lat="50.418305" lon="3.825118"><time>2026-05-03T00:35:36Z</time></trkpt>
</trkseg>
</trk>
<trk>
<name>hbshri12</name>
<cmt>v</cmt>
<desc>Hornu Sentier n°i12 </desc>
<link href="https://chemins.be/hornu/sentier/i12"/><trkseg>
<trkpt lat="50.431621" lon="3.822842"><time>2026-05-03T00:05:36Z</time></trkpt>
<trkpt lat="50.431614" lon="3.823044"><time>2026-05-03T00:15:36Z</time></trkpt>
<trkpt lat="50.431620" lon="3.823151"><time>2026-05-03T00:25:36Z</time></trkpt>
<trkpt lat="50.431635" lon="3.823272"><time>2026-05-03T00:35:36Z</time></trkpt>
<trkpt lat="50.431692" lon="3.823484"><time>2026-05-03T00:45:36Z</time></trkpt>
<trkpt lat="50.431737" lon="3.823640"><time>2026-05-03T00:55:36Z</time></trkpt>
</trkseg>
</trk>
<trk>
<name>hbshri13</name>
<cmt>v</cmt>
<desc>Hornu Sentier n°i13 </desc>
<link href="https://chemins.be/hornu/sentier/i13"/><trkseg>
<trkpt lat="50.440819" lon="3.832145"><time>2026-05-03T00:05:36Z</time></trkpt>
<trkpt lat="50.438067" lon="3.828819"><time>2026-05-03T00:15:36Z</time></trkpt>
<trkpt lat="50.437935" lon="3.827687"><time>2026-05-03T00:25:36Z</time></trkpt>
<trkpt lat="50.438136" lon="3.827635"><time>2026-05-03T00:35:36Z</time></trkpt>
</trkseg>
</trk>
<trk>
<name>hbshri14</name>
<cmt>b</cmt>
<desc>Hornu Chemin n°i14 </desc>
<link href="https://chemins.be/hornu/chemin/i14"/><trkseg>
<trkpt lat="50.419994" lon="3.818607"><time>2026-05-03T00:05:36Z</time></trkpt>
<trkpt lat="50.420085" lon="3.817919"><time>2026-05-03T00:15:36Z</time></trkpt>
</trkseg></trk>
<trk>
<name>hbshri14</name>
<cmt>d</cmt>
<desc>Hornu Chemin n°i14 </desc>
<link href="https://chemins.be/hornu/chemin/i14"/><trkseg>
<trkpt lat="50.420085" lon="3.817919"><time>2026-05-03T00:15:36Z</time></trkpt>
<trkpt lat="50.420268" lon="3.816537"><time>2026-05-03T00:25:36Z</time></trkpt>
</trkseg>
</trk>
<trk>
<name>hbshri15</name>
<cmt>v</cmt>
<desc>Hornu Chemin n°i15 </desc>
<link href="https://chemins.be/hornu/chemin/i15"/><trkseg>
<trkpt lat="50.410890" lon="3.806831"><time>2026-05-03T00:05:36Z</time></trkpt>
<trkpt lat="50.410449" lon="3.807986"><time>2026-05-03T00:15:36Z</time></trkpt>
</trkseg></trk>
<trk>
<name>hbshri15</name>
<cmt>q</cmt>
<desc>Hornu Chemin n°i15 </desc>
<link href="https://chemins.be/hornu/chemin/i15"/><trkseg>
<trkpt lat="50.410449" lon="3.807986"><time>2026-05-03T00:15:36Z</time></trkpt>
<trkpt lat="50.410039" lon="3.809047"><time>2026-05-03T00:25:36Z</time></trkpt>
</trkseg></trk>
<trk>
<name>hbshri15</name>
<cmt>v</cmt>
<desc>Hornu Chemin n°i15 </desc>
<link href="https://chemins.be/hornu/chemin/i15"/><trkseg>
<trkpt lat="50.410039" lon="3.809047"><time>2026-05-03T00:25:36Z</time></trkpt>
<trkpt lat="50.409869" lon="3.809464"><time>2026-05-03T00:35:36Z</time></trkpt>
</trkseg></trk>
<trk>
<name>hbshri15</name>
<cmt>q</cmt>
<desc>Hornu Chemin n°i15 </desc>
<link href="https://chemins.be/hornu/chemin/i15"/><trkseg>
<trkpt lat="50.409869" lon="3.809464"><time>2026-05-03T00:35:36Z</time></trkpt>
<trkpt lat="50.408003" lon="3.814386"><time>2026-05-03T00:45:36Z</time></trkpt>
</trkseg>
</trk>
<trk>
<name>hbshri16</name>
<cmt>q</cmt>
<desc>Hornu Chemin n°i16 </desc>
<link href="https://chemins.be/hornu/chemin/i16"/><trkseg>
<trkpt lat="50.410460" lon="3.808006"><time>2026-05-03T00:05:36Z</time></trkpt>
<trkpt lat="50.410173" lon="3.808385"><time>2026-05-03T00:15:36Z</time></trkpt>
<trkpt lat="50.410027" lon="3.808561"><time>2026-05-03T00:25:36Z</time></trkpt>
<trkpt lat="50.407185" lon="3.807920"><time>2026-05-03T00:35:36Z</time></trkpt>
<trkpt lat="50.405697" lon="3.807533"><time>2026-05-03T00:45:36Z</time></trkpt>
<trkpt lat="50.404265" lon="3.808134"><time>2026-05-03T00:55:36Z</time></trkpt>
<trkpt lat="50.403586" lon="3.808134"><time>2026-05-03T01:05:36Z</time></trkpt>
<trkpt lat="50.402636" lon="3.807860"><time>2026-05-03T01:15:36Z</time></trkpt>
</trkseg></trk>
<trk>
<name>hbshri16</name>
<cmt>s</cmt>
<desc>Hornu Chemin n°i16 </desc>
<link href="https://chemins.be/hornu/chemin/i16"/><trkseg>
<trkpt lat="50.402636" lon="3.807860"><time>2026-05-03T01:15:36Z</time></trkpt>
<trkpt lat="50.401489" lon="3.807490"><time>2026-05-03T01:25:36Z</time></trkpt>
</trkseg>
</trk>
<trk>
<name>hbshri17</name>
<cmt>v</cmt>
<desc>Hornu Chemin n°i17 </desc>
<link href="https://chemins.be/hornu/chemin/i17"/><trkseg>
<trkpt lat="50.408058" lon="3.804644"><time>2026-05-03T00:05:36Z</time></trkpt>
<trkpt lat="50.407625" lon="3.805688"><time>2026-05-03T00:15:36Z</time></trkpt>
</trkseg></trk>
<trk>
<name>hbshri17</name>
<cmt>d</cmt>
<desc>Hornu Chemin n°i17 </desc>
<link href="https://chemins.be/hornu/chemin/i17"/><trkseg>
<trkpt lat="50.407625" lon="3.805688"><time>2026-05-03T00:15:36Z</time></trkpt>
<trkpt lat="50.407178" lon="3.807970"><time>2026-05-03T00:25:36Z</time></trkpt>
<trkpt lat="50.406248" lon="3.813313"><time>2026-05-03T00:35:36Z</time></trkpt>
</trkseg></trk>
<trk>
<name>hbshri17</name>
<cmt>q</cmt>
<desc>Hornu Chemin n°i17 </desc>
<link href="https://chemins.be/hornu/chemin/i17"/><trkseg>
<trkpt lat="50.406248" lon="3.813313"><time>2026-05-03T00:35:36Z</time></trkpt>
<trkpt lat="50.406129" lon="3.813846"><time>2026-05-03T00:45:36Z</time></trkpt>
<trkpt lat="50.406049" lon="3.814465"><time>2026-05-03T00:55:36Z</time></trkpt>
</trkseg>
</trk>
<trk>
<name>hbshri18</name>
<cmt>v</cmt>
<desc>Hornu Chemin n°i18 sentier de l'escouffiaux / sentier de l'Escoufiaux / Sentier de l'Escouffiaux</desc>
<link href="https://chemins.be/hornu/chemin/i18"/><trkseg>
<trkpt lat="50.406271" lon="3.813999"><time>2026-05-03T00:05:36Z</time></trkpt>
<trkpt lat="50.405619" lon="3.813423"><time>2026-05-03T00:15:36Z</time></trkpt>
<trkpt lat="50.404261" lon="3.812140"><time>2026-05-03T00:25:36Z</time></trkpt>
<trkpt lat="50.402188" lon="3.810609"><time>2026-05-03T00:35:36Z</time></trkpt>
<trkpt lat="50.401977" lon="3.810452"><time>2026-05-03T00:45:36Z</time></trkpt>
</trkseg></trk>
<trk>
<name>hbshri18</name>
<cmt>r</cmt>
<desc>Hornu Chemin n°i18 sentier de l'escouffiaux / sentier de l'Escoufiaux / Sentier de l'Escouffiaux</desc>
<link href="https://chemins.be/hornu/chemin/i18"/><trkseg>
<trkpt lat="50.401977" lon="3.810452"><time>2026-05-03T00:45:36Z</time></trkpt>
<trkpt lat="50.401274" lon="3.809937"><time>2026-05-03T00:55:36Z</time></trkpt>
</trkseg>
</trk>
<trk>
<name>hbshri19</name>
<cmt>q</cmt>
<desc>Hornu Sentier n°i19 </desc>
<link href="https://chemins.be/hornu/sentier/i19"/><trkseg>
<trkpt lat="50.411673" lon="3.809462"><time>2026-05-03T00:05:36Z</time></trkpt>
<trkpt lat="50.411671" lon="3.808742"><time>2026-05-03T00:15:36Z</time></trkpt>
<trkpt lat="50.411486" lon="3.808689"><time>2026-05-03T00:25:36Z</time></trkpt>
<trkpt lat="50.410855" lon="3.806969"><time>2026-05-03T00:35:36Z</time></trkpt>
</trkseg>
</trk>
<trk>
<name>hbshri2</name>
<cmt>s</cmt>
<desc>Hornu Chemin n°i2 </desc>
<link href="https://chemins.be/hornu/chemin/i2"/><trkseg>
<trkpt lat="50.439215" lon="3.839892"><time>2026-05-03T00:05:36Z</time></trkpt>
<trkpt lat="50.440035" lon="3.839442"><time>2026-05-03T00:15:36Z</time></trkpt>
<trkpt lat="50.441750" lon="3.838548"><time>2026-05-03T00:25:36Z</time></trkpt>
</trkseg></trk>
<trk>
<name>hbshri2</name>
<cmt>q</cmt>
<desc>Hornu Chemin n°i2 </desc>
<link href="https://chemins.be/hornu/chemin/i2"/><trkseg>
<trkpt lat="50.441750" lon="3.838548"><time>2026-05-03T00:25:36Z</time></trkpt>
<trkpt lat="50.441925" lon="3.838442"><time>2026-05-03T00:35:36Z</time></trkpt>
<trkpt lat="50.442875" lon="3.837642"><time>2026-05-03T00:45:36Z</time></trkpt>
</trkseg>
</trk>
<trk>
<name>hbshri20</name>
<cmt>v</cmt>
<desc>Hornu Chemin n°i20 </desc>
<link href="https://chemins.be/hornu/chemin/i20"/><trkseg>
<trkpt lat="50.437185" lon="3.813540"><time>2026-05-03T00:05:36Z</time></trkpt>
<trkpt lat="50.436984" lon="3.815896"><time>2026-05-03T00:15:36Z</time></trkpt>
<trkpt lat="50.436854" lon="3.817905"><time>2026-05-03T00:25:36Z</time></trkpt>
</trkseg>
</trk>
<trk>
<name>hbshri21</name>
<cmt>v</cmt>
<desc>Hornu Chemin n°i21 </desc>
<link href="https://chemins.be/hornu/chemin/i21"/><trkseg>
<trkpt lat="50.436640" lon="3.820138"><time>2026-05-03T00:05:36Z</time></trkpt>
<trkpt lat="50.436539" lon="3.819813"><time>2026-05-03T00:15:36Z</time></trkpt>
<trkpt lat="50.436684" lon="3.818024"><time>2026-05-03T00:25:36Z</time></trkpt>
<trkpt lat="50.436883" lon="3.815881"><time>2026-05-03T00:35:36Z</time></trkpt>
</trkseg></trk>
<trk>
<name>hbshri21</name>
<cmt>d</cmt>
<desc>Hornu Chemin n°i21 </desc>
<link href="https://chemins.be/hornu/chemin/i21"/><trkseg>
<trkpt lat="50.436883" lon="3.815881"><time>2026-05-03T00:35:36Z</time></trkpt>
<trkpt lat="50.437030" lon="3.813765"><time>2026-05-03T00:45:36Z</time></trkpt>
</trkseg>
</trk>
<trk>
<name>hbshri22</name>
<cmt>v</cmt>
<desc>Hornu Chemin n°i22 Contournement de Boussu</desc>
<link href="https://chemins.be/hornu/chemin/i22"/><trkseg>
<trkpt lat="50.426997" lon="3.820957"><time>2026-05-03T00:05:36Z</time></trkpt>
<trkpt lat="50.428064" lon="3.821288"><time>2026-05-03T00:15:36Z</time></trkpt>
<trkpt lat="50.429846" lon="3.821113"><time>2026-05-03T00:25:36Z</time></trkpt>
<trkpt lat="50.432142" lon="3.819952"><time>2026-05-03T00:35:36Z</time></trkpt>
</trkseg></trk>
<trk>
<name>hbshri22</name>
<cmt>d</cmt>
<desc>Hornu Chemin n°i22 Contournement de Boussu</desc>
<link href="https://chemins.be/hornu/chemin/i22"/><trkseg>
<trkpt lat="50.432142" lon="3.819952"><time>2026-05-03T00:35:36Z</time></trkpt>
<trkpt lat="50.434716" lon="3.818650"><time>2026-05-03T00:45:36Z</time></trkpt>
</trkseg></trk>
<trk>
<name>hbshri22</name>
<cmt>v</cmt>
<desc>Hornu Chemin n°i22 Contournement de Boussu</desc>
<link href="https://chemins.be/hornu/chemin/i22"/><trkseg>
<trkpt lat="50.434716" lon="3.818650"><time>2026-05-03T00:45:36Z</time></trkpt>
<trkpt lat="50.435998" lon="3.818224"><time>2026-05-03T00:55:36Z</time></trkpt>
<trkpt lat="50.436702" lon="3.817977"><time>2026-05-03T01:05:36Z</time></trkpt>
<trkpt lat="50.437150" lon="3.818050"><time>2026-05-03T01:15:36Z</time></trkpt>
<trkpt lat="50.437843" lon="3.818213"><time>2026-05-03T01:25:36Z</time></trkpt>
<trkpt lat="50.438685" lon="3.818777"><time>2026-05-03T01:35:36Z</time></trkpt>
<trkpt lat="50.440143" lon="3.821987"><time>2026-05-03T01:45:36Z</time></trkpt>
<trkpt lat="50.441115" lon="3.823476"><time>2026-05-03T01:55:36Z</time></trkpt>
<trkpt lat="50.441530" lon="3.824184"><time>2026-05-03T02:05:36Z</time></trkpt>
</trkseg>
</trk>
<trk>
<name>hbshri23</name>
<cmt>v</cmt>
<desc>Hornu Sentier n°i23 </desc>
<link href="https://chemins.be/hornu/sentier/i23"/><trkseg>
<trkpt lat="50.436983" lon="3.815888"><time>2026-05-03T00:05:36Z</time></trkpt>
<trkpt lat="50.436892" lon="3.815871"><time>2026-05-03T00:15:36Z</time></trkpt>
</trkseg>
</trk>
<trk>
<name>hbshri3</name>
<cmt>r</cmt>
<desc>Hornu Sentier n°i3 </desc>
<link href="https://chemins.be/hornu/sentier/i3"/><trkseg>
<trkpt lat="50.429995" lon="3.827658"><time>2026-05-03T00:05:36Z</time></trkpt>
<trkpt lat="50.430478" lon="3.827184"><time>2026-05-03T00:15:36Z</time></trkpt>
</trkseg></trk>
<trk>
<name>hbshri3</name>
<cmt>v</cmt>
<desc>Hornu Sentier n°i3 </desc>
<link href="https://chemins.be/hornu/sentier/i3"/><trkseg>
<trkpt lat="50.430478" lon="3.827184"><time>2026-05-03T00:15:36Z</time></trkpt>
<trkpt lat="50.431159" lon="3.826603"><time>2026-05-03T00:25:36Z</time></trkpt>
</trkseg></trk>
<trk>
<name>hbshri3</name>
<cmt>q</cmt>
<desc>Hornu Sentier n°i3 </desc>
<link href="https://chemins.be/hornu/sentier/i3"/><trkseg>
<trkpt lat="50.431159" lon="3.826603"><time>2026-05-03T00:25:36Z</time></trkpt>
<trkpt lat="50.431759" lon="3.826061"><time>2026-05-03T00:35:36Z</time></trkpt>
<trkpt lat="50.432287" lon="3.825605"><time>2026-05-03T00:45:36Z</time></trkpt>
</trkseg>
</trk>
<trk>
<name>hbshri4</name>
<cmt>v</cmt>
<desc>Hornu Sentier n°i4 </desc>
<link href="https://chemins.be/hornu/sentier/i4"/><trkseg>
<trkpt lat="50.428915" lon="3.823853"><time>2026-05-03T00:05:36Z</time></trkpt>
<trkpt lat="50.429608" lon="3.823732"><time>2026-05-03T00:15:36Z</time></trkpt>
<trkpt lat="50.429717" lon="3.823819"><time>2026-05-03T00:25:36Z</time></trkpt>
<trkpt lat="50.429985" lon="3.823721"><time>2026-05-03T00:35:36Z</time></trkpt>
</trkseg></trk>
<trk>
<name>hbshri4</name>
<cmt>r</cmt>
<desc>Hornu Sentier n°i4 </desc>
<link href="https://chemins.be/hornu/sentier/i4"/><trkseg>
<trkpt lat="50.429985" lon="3.823721"><time>2026-05-03T00:35:36Z</time></trkpt>
<trkpt lat="50.430152" lon="3.824296"><time>2026-05-03T00:45:36Z</time></trkpt>
<trkpt lat="50.430437" lon="3.824334"><time>2026-05-03T00:55:36Z</time></trkpt>
<trkpt lat="50.430503" lon="3.824598"><time>2026-05-03T01:05:36Z</time></trkpt>
</trkseg></trk>
<trk>
<name>hbshri4</name>
<cmt>v</cmt>
<desc>Hornu Sentier n°i4 </desc>
<link href="https://chemins.be/hornu/sentier/i4"/><trkseg>
<trkpt lat="50.430503" lon="3.824598"><time>2026-05-03T01:05:36Z</time></trkpt>
<trkpt lat="50.431740" lon="3.823639"><time>2026-05-03T01:15:36Z</time></trkpt>
<trkpt lat="50.432849" lon="3.822586"><time>2026-05-03T01:25:36Z</time></trkpt>
</trkseg>
</trk>
<trk>
<name>hbshri5</name>
<cmt>r</cmt>
<desc>Hornu Chemin n°i5 Rue Arthur Bastien</desc>
<link href="https://chemins.be/hornu/chemin/i5"/><trkseg>
<trkpt lat="50.427178" lon="3.825623"><time>2026-05-03T00:05:36Z</time></trkpt>
<trkpt lat="50.426987" lon="3.828413"><time>2026-05-03T00:15:36Z</time></trkpt>
<trkpt lat="50.426672" lon="3.830752"><time>2026-05-03T00:25:36Z</time></trkpt>
</trkseg></trk>
<trk>
<name>hbshri5</name>
<cmt>q</cmt>
<desc>Hornu Chemin n°i5 Rue Arthur Bastien</desc>
<link href="https://chemins.be/hornu/chemin/i5"/><trkseg>
<trkpt lat="50.426672" lon="3.830752"><time>2026-05-03T00:25:36Z</time></trkpt>
<trkpt lat="50.426345" lon="3.831842"><time>2026-05-03T00:35:36Z</time></trkpt>
<trkpt lat="50.426095" lon="3.832312"><time>2026-05-03T00:45:36Z</time></trkpt>
</trkseg>
</trk>
<trk>
<name>hbshri6</name>
<cmt>v</cmt>
<desc>Hornu Chemin n°i6 </desc>
<link href="https://chemins.be/hornu/chemin/i6"/><trkseg>
<trkpt lat="50.415133" lon="3.815256"><time>2026-05-03T00:05:36Z</time></trkpt>
<trkpt lat="50.416684" lon="3.813532"><time>2026-05-03T00:15:36Z</time></trkpt>
<trkpt lat="50.417059" lon="3.813071"><time>2026-05-03T00:25:36Z</time></trkpt>
<trkpt lat="50.417396" lon="3.812753"><time>2026-05-03T00:35:36Z</time></trkpt>
<trkpt lat="50.418128" lon="3.812102"><time>2026-05-03T00:45:36Z</time></trkpt>
<trkpt lat="50.418416" lon="3.811829"><time>2026-05-03T00:55:36Z</time></trkpt>
<trkpt lat="50.418583" lon="3.811657"><time>2026-05-03T01:05:36Z</time></trkpt>
<trkpt lat="50.419081" lon="3.811028"><time>2026-05-03T01:15:36Z</time></trkpt>
<trkpt lat="50.419177" lon="3.810887"><time>2026-05-03T01:25:36Z</time></trkpt>
<trkpt lat="50.419551" lon="3.810477"><time>2026-05-03T01:35:36Z</time></trkpt>
<trkpt lat="50.419687" lon="3.810429"><time>2026-05-03T01:45:36Z</time></trkpt>
<trkpt lat="50.419834" lon="3.810400"><time>2026-05-03T01:55:36Z</time></trkpt>
<trkpt lat="50.419881" lon="3.810408"><time>2026-05-03T02:05:36Z</time></trkpt>
<trkpt lat="50.419902" lon="3.810466"><time>2026-05-03T02:15:36Z</time></trkpt>
<trkpt lat="50.419911" lon="3.810656"><time>2026-05-03T02:25:36Z</time></trkpt>
<trkpt lat="50.419925" lon="3.811398"><time>2026-05-03T02:35:36Z</time></trkpt>
<trkpt lat="50.419930" lon="3.811636"><time>2026-05-03T02:45:36Z</time></trkpt>
<trkpt lat="50.419995" lon="3.811784"><time>2026-05-03T02:55:36Z</time></trkpt>
<trkpt lat="50.420040" lon="3.811904"><time>2026-05-03T03:05:36Z</time></trkpt>
<trkpt lat="50.420169" lon="3.812692"><time>2026-05-03T03:15:36Z</time></trkpt>
<trkpt lat="50.420708" lon="3.815336"><time>2026-05-03T03:25:36Z</time></trkpt>
</trkseg>
</trk>
<trk>
<name>hbshri7</name>
<cmt>v</cmt>
<desc>Hornu Chemin n°i7 </desc>
<link href="https://chemins.be/hornu/chemin/i7"/><trkseg>
<trkpt lat="50.431678" lon="3.818350"><time>2026-05-03T00:05:36Z</time></trkpt>
<trkpt lat="50.431542" lon="3.816311"><time>2026-05-03T00:15:36Z</time></trkpt>
<trkpt lat="50.430667" lon="3.811355"><time>2026-05-03T00:25:36Z</time></trkpt>
</trkseg>
</trk>
<trk>
<name>hbshri8</name>
<cmt>v</cmt>
<desc>Hornu Sentier n°i8 </desc>
<link href="https://chemins.be/hornu/sentier/i8"/><trkseg>
<trkpt lat="50.418354" lon="3.825124"><time>2026-05-03T00:05:36Z</time></trkpt>
<trkpt lat="50.418125" lon="3.825957"><time>2026-05-03T00:15:36Z</time></trkpt>
<trkpt lat="50.417324" lon="3.828285"><time>2026-05-03T00:25:36Z</time></trkpt>
<trkpt lat="50.416435" lon="3.828317"><time>2026-05-03T00:35:36Z</time></trkpt>
<trkpt lat="50.416052" lon="3.827684"><time>2026-05-03T00:45:36Z</time></trkpt>
<trkpt lat="50.416018" lon="3.827362"><time>2026-05-03T00:55:36Z</time></trkpt>
<trkpt lat="50.416572" lon="3.826300"><time>2026-05-03T01:05:36Z</time></trkpt>
<trkpt lat="50.416934" lon="3.826590"><time>2026-05-03T01:15:36Z</time></trkpt>
</trkseg>
</trk>
<trk>
<name>hbshri9</name>
<cmt>v</cmt>
<desc>Hornu Sentier n°i9 </desc>
<link href="https://chemins.be/hornu/sentier/i9"/><trkseg>
<trkpt lat="50.398527" lon="3.819149"><time>2026-05-03T00:05:36Z</time></trkpt>
<trkpt lat="50.399047" lon="3.817604"><time>2026-05-03T00:15:36Z</time></trkpt>
<trkpt lat="50.399266" lon="3.817851"><time>2026-05-03T00:25:36Z</time></trkpt>
<trkpt lat="50.399717" lon="3.816563"><time>2026-05-03T00:35:36Z</time></trkpt>
</trkseg>
</trk>
<trk>
<name>hbshrL98</name>
<cmt>v</cmt>
<desc>Hornu Chemin n°L98 Axiale Boraine / RAVeL de la Ligne 98</desc>
<link href="https://chemins.be/hornu/chemin/L98"/><trkseg>
<trkpt lat="50.420003" lon="3.807916"><time>2026-05-03T00:05:36Z</time></trkpt>
<trkpt lat="50.419940" lon="3.809114"><time>2026-05-03T00:15:36Z</time></trkpt>
<trkpt lat="50.419988" lon="3.810351"><time>2026-05-03T00:25:36Z</time></trkpt>
<trkpt lat="50.420167" lon="3.811715"><time>2026-05-03T00:35:36Z</time></trkpt>
<trkpt lat="50.420937" lon="3.815152"><time>2026-05-03T00:45:36Z</time></trkpt>
<trkpt lat="50.420945" lon="3.817073"><time>2026-05-03T00:55:36Z</time></trkpt>
<trkpt lat="50.420903" lon="3.817622"><time>2026-05-03T01:05:36Z</time></trkpt>
<trkpt lat="50.420626" lon="3.818748"><time>2026-05-03T01:15:36Z</time></trkpt>
<trkpt lat="50.420416" lon="3.819084"><time>2026-05-03T01:25:36Z</time></trkpt>
<trkpt lat="50.420124" lon="3.819830"><time>2026-05-03T01:35:36Z</time></trkpt>
<trkpt lat="50.419547" lon="3.821646"><time>2026-05-03T01:45:36Z</time></trkpt>
<trkpt lat="50.419544" lon="3.822405"><time>2026-05-03T01:55:36Z</time></trkpt>
<trkpt lat="50.419257" lon="3.823024"><time>2026-05-03T02:05:36Z</time></trkpt>
<trkpt lat="50.418428" lon="3.825189"><time>2026-05-03T02:15:36Z</time></trkpt>
<trkpt lat="50.418054" lon="3.826699"><time>2026-05-03T02:25:36Z</time></trkpt>
<trkpt lat="50.417892" lon="3.828111"><time>2026-05-03T02:35:36Z</time></trkpt>
<trkpt lat="50.417901" lon="3.829441"><time>2026-05-03T02:45:36Z</time></trkpt>
<trkpt lat="50.418070" lon="3.830488"><time>2026-05-03T02:55:36Z</time></trkpt>
</trkseg>
</trk>
<trk>
<name>hbshrL98C</name>
<cmt>s</cmt>
<desc>Hornu Chemin n°L98C Rue Marius Renard</desc>
<link href="https://chemins.be/hornu/chemin/L98C"/><trkseg>
<trkpt lat="50.439591" lon="3.841610"><time>2026-05-03T00:05:36Z</time></trkpt>
<trkpt lat="50.442913" lon="3.837576"><time>2026-05-03T00:15:36Z</time></trkpt>
<trkpt lat="50.444307" lon="3.835430"><time>2026-05-03T00:25:36Z</time></trkpt>
<trkpt lat="50.445044" lon="3.832405"><time>2026-05-03T00:35:36Z</time></trkpt>
<trkpt lat="50.444990" lon="3.829465"><time>2026-05-03T00:45:36Z</time></trkpt>
</trkseg>
</trk>
</gpx>